createdAt,value
2023-05-07T00:01:34.951Z,18.00
2023-05-07T00:04:01.740Z,14.60
2023-05-07T00:06:29.957Z,16.90
2023-05-07T00:08:57.980Z,16.40
2023-05-07T00:11:24.868Z,30.30
2023-05-07T00:13:51.540Z,35.80
2023-05-07T00:16:18.257Z,46.60
2023-05-07T00:18:45.214Z,41.20
2023-05-07T00:21:12.237Z,45.60
2023-05-07T00:23:38.903Z,54.00
2023-05-07T00:26:05.652Z,41.90
2023-05-07T00:28:32.353Z,30.50
2023-05-07T00:30:59.121Z,40.30
2023-05-07T00:33:27.690Z,29.60
2023-05-07T00:35:55.372Z,25.00
2023-05-07T00:38:22.033Z,19.40
2023-05-07T00:40:48.748Z,14.70
2023-05-07T00:43:16.073Z,11.90
2023-05-07T00:45:42.847Z,8.70
2023-05-07T00:48:09.814Z,3.70
2023-05-07T00:50:36.737Z,9.50
2023-05-07T00:53:03.606Z,8.40
2023-05-07T00:55:30.746Z,13.40
2023-05-07T00:57:57.556Z,20.20
2023-05-07T01:00:25.735Z,45.10
2023-05-07T01:02:53.167Z,43.20
2023-05-07T01:05:23.080Z,39.10
2023-05-07T01:07:53.160Z,58.10
2023-05-07T01:10:20.461Z,47.90
2023-05-07T01:12:48.769Z,48.00
2023-05-07T01:15:16.101Z,27.00
2023-05-07T01:17:44.051Z,21.50
2023-05-07T01:20:11.816Z,19.40
2023-05-07T01:22:39.800Z,13.60
2023-05-07T01:25:08.306Z,10.90
2023-05-07T01:27:36.573Z,16.00
2023-05-07T01:30:04.517Z,13.90
2023-05-07T01:32:48.731Z,5.70
2023-05-07T01:35:23.930Z,1.00
2023-05-07T01:37:51.353Z,1.00
2023-05-07T01:40:20.358Z,1.00
2023-05-07T01:42:47.508Z,1.00
2023-05-07T01:45:14.457Z,1.00
2023-05-07T01:47:41.643Z,1.00
2023-05-07T01:50:11.136Z,13.50
2023-05-07T01:52:39.604Z,15.60
2023-05-07T01:55:07.312Z,12.00
2023-05-07T01:57:34.036Z,22.70
2023-05-07T02:00:00.706Z,25.50
2023-05-07T02:02:27.513Z,54.30
2023-05-07T02:04:54.352Z,58.70
2023-05-07T02:07:21.104Z,45.20
2023-05-07T02:09:47.789Z,55.80
2023-05-07T02:12:14.511Z,55.60
2023-05-07T02:14:41.211Z,66.50
2023-05-07T02:17:08.271Z,63.60
2023-05-07T02:19:35.018Z,81.40
2023-05-07T02:22:03.466Z,73.00
2023-05-07T02:24:31.045Z,81.40
2023-05-07T02:26:57.739Z,90.70
2023-05-07T02:31:53.929Z,95.60
2023-05-07T02:34:20.973Z,99.90
2023-05-07T02:36:47.851Z,99.90
2023-05-07T02:39:14.962Z,96.60
2023-05-07T02:41:41.653Z,98.10
2023-05-07T02:44:08.422Z,99.90
2023-05-07T02:51:31.650Z,99.80
2023-05-07T02:53:58.424Z,98.70
2023-05-07T02:56:27.263Z,99.20
2023-05-07T02:58:54.076Z,99.90
2023-05-07T03:03:48.952Z,99.30
2023-05-07T03:06:16.409Z,92.00
2023-05-07T03:18:32.073Z,96.30
2023-05-07T03:20:58.916Z,99.90
2023-05-07T03:35:41.574Z,99.90
2023-05-07T03:47:57.225Z,99.60
2023-05-07T03:50:23.985Z,99.90
2023-05-07T03:52:50.997Z,99.90
2023-05-07T03:55:17.845Z,99.90
2023-05-07T04:00:12.769Z,99.90
2023-05-07T04:07:34.463Z,99.90
2023-05-07T04:10:01.152Z,99.90
2023-05-07T04:12:27.848Z,99.90
2023-05-07T04:14:54.548Z,99.90
2023-05-07T04:17:21.247Z,99.90
2023-05-07T04:19:47.941Z,99.90
2023-05-07T04:22:14.719Z,99.90
2023-05-07T04:24:41.410Z,99.90
2023-05-07T04:27:08.092Z,99.20
2023-05-07T04:29:34.833Z,95.80
2023-05-07T04:32:01.627Z,84.30
2023-05-07T04:34:28.438Z,77.00
2023-05-07T04:36:55.116Z,64.50
2023-05-07T04:39:21.871Z,58.80
2023-05-07T04:41:48.650Z,65.90
2023-05-07T04:44:15.669Z,40.00
2023-05-07T04:46:42.424Z,41.40
2023-05-07T04:49:09.337Z,37.90
2023-05-07T04:51:36.007Z,25.90
2023-05-07T04:54:02.784Z,15.60
2023-05-07T04:56:30.981Z,5.00
2023-05-07T04:58:57.769Z,1.00
2023-05-07T05:01:24.581Z,1.00
2023-05-07T05:03:51.355Z,1.00
2023-05-07T05:06:18.140Z,1.00
2023-05-07T05:08:44.903Z,1.00
2023-05-07T05:11:11.722Z,1.00
2023-05-07T05:13:38.451Z,1.00
2023-05-07T05:16:05.590Z,1.00
2023-05-07T05:18:32.293Z,1.00
2023-05-07T05:20:58.996Z,1.00
2023-05-07T05:23:25.768Z,1.00
2023-05-07T05:25:58.703Z,1.00
2023-05-07T05:28:28.983Z,1.00
2023-05-07T05:30:55.708Z,1.00
2023-05-07T05:33:22.362Z,1.00
2023-05-07T05:35:49.042Z,1.00
2023-05-07T05:38:15.790Z,1.00
2023-05-07T05:40:42.558Z,1.00
2023-05-07T05:43:09.319Z,99.90
2023-05-07T05:45:36.120Z,99.90
2023-05-07T05:48:02.929Z,99.90
2023-05-07T05:50:29.621Z,99.90
2023-05-07T05:52:56.369Z,99.90
2023-05-07T05:55:23.417Z,99.90
2023-05-07T05:57:51.081Z,99.90
2023-05-07T06:00:17.970Z,99.90
2023-05-07T06:02:44.875Z,99.90
2023-05-07T06:05:11.665Z,99.90
2023-05-07T06:07:38.387Z,99.90
2023-05-07T06:10:05.702Z,99.90
2023-05-07T06:12:32.722Z,99.90
2023-05-07T06:14:59.411Z,99.90
2023-05-07T06:17:26.161Z,99.90
2023-05-07T06:19:53.475Z,99.90
2023-05-07T06:22:20.430Z,99.90
2023-05-07T06:24:47.337Z,99.90
2023-05-07T06:27:14.118Z,99.90
2023-05-07T06:29:40.887Z,99.90
2023-05-07T06:32:11.978Z,99.90
2023-05-07T06:34:39.856Z,99.90
2023-05-07T06:37:06.960Z,99.90
2023-05-07T06:39:34.540Z,99.90
2023-05-07T06:42:01.738Z,99.90
2023-05-07T06:44:28.558Z,99.90
2023-05-07T06:46:55.273Z,99.90
2023-05-07T06:49:21.937Z,99.90
2023-05-07T06:51:48.783Z,99.90
2023-05-07T06:54:15.544Z,99.90
2023-05-07T06:56:42.874Z,99.90
2023-05-07T06:59:09.559Z,99.90
2023-05-07T07:01:36.260Z,99.90
2023-05-07T07:04:02.968Z,99.90
2023-05-07T07:06:30.756Z,99.90
2023-05-07T07:08:57.492Z,99.90
2023-05-07T07:11:24.318Z,99.90
2023-05-07T07:13:51.777Z,99.90
2023-05-07T07:16:18.520Z,99.90
2023-05-07T07:18:45.302Z,99.90
2023-05-07T07:21:12.096Z,99.90
2023-05-07T07:23:39.151Z,99.90
2023-05-07T07:26:07.091Z,99.90
2023-05-07T07:28:34.047Z,99.90
2023-05-07T07:31:00.812Z,99.90
2023-05-07T07:33:27.916Z,99.90
2023-05-07T07:35:54.612Z,99.90
2023-05-07T07:38:21.304Z,99.90
2023-05-07T07:40:48.896Z,99.90
2023-05-07T07:43:15.599Z,99.90
2023-05-07T07:45:42.901Z,99.90
2023-05-07T07:48:09.674Z,99.90
2023-05-07T07:50:44.663Z,99.90
2023-05-07T07:53:12.237Z,99.90
2023-05-07T07:55:42.007Z,99.90
2023-05-07T07:58:08.928Z,99.90
2023-05-07T08:00:35.663Z,99.90
2023-05-07T08:05:31.506Z,99.90
2023-05-07T08:07:59.508Z,99.90
2023-05-07T08:10:26.379Z,99.90
2023-05-07T08:12:53.428Z,99.90
2023-05-07T08:15:20.315Z,99.90
2023-05-07T08:17:47.053Z,1.00
2023-05-07T08:20:14.949Z,83.90
2023-05-07T08:22:41.858Z,91.30
2023-05-07T08:25:09.069Z,91.40
2023-05-07T08:27:35.736Z,91.30
2023-05-07T08:30:03.312Z,91.00
2023-05-07T08:32:30.080Z,90.90
2023-05-07T08:34:56.790Z,87.50
2023-05-07T08:37:23.512Z,88.10
2023-05-07T08:39:50.260Z,87.50
2023-05-07T08:42:18.222Z,88.20
2023-05-07T08:44:48.136Z,84.30
2023-05-07T08:47:15.295Z,84.40
2023-05-07T08:49:42.227Z,86.80
2023-05-07T08:52:10.114Z,87.60
2023-05-07T08:54:38.246Z,86.50
2023-05-07T08:57:05.332Z,87.30
2023-05-07T08:59:32.078Z,86.60
2023-05-07T09:01:59.031Z,86.60
2023-05-07T09:04:25.943Z,88.10
2023-05-07T09:06:52.840Z,88.40
2023-05-07T09:09:19.896Z,83.20
2023-05-07T09:11:46.655Z,81.50
2023-05-07T09:14:13.736Z,78.60
2023-05-07T09:16:40.663Z,75.00
2023-05-07T09:19:07.404Z,71.00
2023-05-07T09:21:34.092Z,73.30
2023-05-07T09:24:00.814Z,71.10
2023-05-07T09:26:29.291Z,71.70
2023-05-07T09:28:56.504Z,15.40
2023-05-07T09:31:24.701Z,13.10
2023-05-07T09:33:51.718Z,10.70
2023-05-07T09:36:19.216Z,7.50
2023-05-07T09:38:46.615Z,7.00
2023-05-07T09:41:14.057Z,7.00
2023-05-07T09:43:41.814Z,6.90
2023-05-07T09:46:13.609Z,7.90
2023-05-07T09:48:42.705Z,11.70
2023-05-07T09:51:19.450Z,12.70
2023-05-07T09:53:47.261Z,13.10
2023-05-07T09:56:16.582Z,14.60
2023-05-07T09:58:46.156Z,14.80
2023-05-07T10:01:13.765Z,14.60
2023-05-07T10:03:45.584Z,16.00
2023-05-07T10:06:14.111Z,18.50
2023-05-07T10:08:41.650Z,18.70
2023-05-07T10:11:08.451Z,19.80
2023-05-07T10:13:39.268Z,19.70
2023-05-07T10:16:06.570Z,20.20
2023-05-07T10:18:34.300Z,21.40
2023-05-07T10:21:18.254Z,22.30
2023-05-07T10:23:54.474Z,23.90
2023-05-07T10:26:24.515Z,24.90
2023-05-07T10:29:06.069Z,24.50
2023-05-07T10:31:54.070Z,23.60
2023-05-07T10:34:29.121Z,21.20
2023-05-07T10:36:57.398Z,12.20
2023-05-07T10:39:24.506Z,1.00
2023-05-07T10:41:51.471Z,1.00
2023-05-07T10:44:29.188Z,1.00
2023-05-07T10:47:12.082Z,1.00
2023-05-07T10:49:44.750Z,1.00
2023-05-07T10:52:19.587Z,1.00
2023-05-07T10:54:47.229Z,1.00
2023-05-07T10:57:33.876Z,1.00
2023-05-07T11:00:00.605Z,1.00
2023-05-07T11:03:02.366Z,1.00
2023-05-07T11:05:36.571Z,1.00
2023-05-07T11:08:05.740Z,1.00
2023-05-07T11:10:56.076Z,1.00
2023-05-07T11:13:46.114Z,1.00
2023-05-07T11:16:19.111Z,1.00
2023-05-07T11:18:51.152Z,1.00
2023-05-07T11:21:36.173Z,1.00
2023-05-07T11:24:04.645Z,1.00
2023-05-07T11:26:42.273Z,1.00
2023-05-07T11:29:14.218Z,1.00
2023-05-07T11:31:41.599Z,1.00
2023-05-07T11:34:10.500Z,1.00
2023-05-07T11:36:41.864Z,1.00
2023-05-07T11:39:42.143Z,1.00
2023-05-07T11:42:25.926Z,1.00
2023-05-07T11:44:52.727Z,1.00
2023-05-07T11:47:19.994Z,1.00
2023-05-07T11:49:54.615Z,1.00
2023-05-07T11:52:22.649Z,1.00
2023-05-07T11:54:55.796Z,1.00
2023-05-07T11:57:23.841Z,1.00
2023-05-07T11:59:58.405Z,1.00
2023-05-07T12:02:26.175Z,1.00
2023-05-07T12:04:54.010Z,1.00
2023-05-07T12:07:20.885Z,1.00
2023-05-07T12:09:48.543Z,1.00
2023-05-07T12:12:16.710Z,1.00
2023-05-07T12:14:45.300Z,1.00
2023-05-07T12:17:13.358Z,1.00
2023-05-07T12:19:42.434Z,1.00
2023-05-07T12:22:09.882Z,1.00
2023-05-07T12:24:50.831Z,1.00
2023-05-07T12:27:18.566Z,1.00
2023-05-07T12:29:47.451Z,1.00
2023-05-07T12:32:19.627Z,1.00
2023-05-07T12:34:50.371Z,1.00
2023-05-07T12:37:17.770Z,1.00
2023-05-07T12:39:51.309Z,1.00
2023-05-07T12:42:21.383Z,1.00
2023-05-07T12:44:48.271Z,1.00
2023-05-07T12:47:16.166Z,1.00
2023-05-07T12:49:44.018Z,1.00
2023-05-07T12:52:12.617Z,1.00
2023-05-07T12:54:39.990Z,1.00
2023-05-07T12:57:08.662Z,1.00
2023-05-07T12:59:41.178Z,1.00
2023-05-07T13:02:08.983Z,1.00
2023-05-07T13:04:36.652Z,1.00
2023-05-07T13:07:03.939Z,1.00
2023-05-07T13:09:31.911Z,1.00
2023-05-07T13:12:02.302Z,1.00
2023-05-07T13:14:29.152Z,1.00
2023-05-07T13:16:55.938Z,1.00
2023-05-07T13:19:22.719Z,1.00
2023-05-07T13:21:50.666Z,1.00
2023-05-07T13:24:17.559Z,1.00
2023-05-07T13:26:46.111Z,1.00
2023-05-07T13:29:13.078Z,1.00
2023-05-07T13:31:43.834Z,1.00
2023-05-07T13:34:11.324Z,1.00
2023-05-07T13:36:40.880Z,1.00
2023-05-07T13:39:07.755Z,1.00
2023-05-07T13:41:34.603Z,1.00
2023-05-07T13:44:01.310Z,1.00
2023-05-07T13:46:28.510Z,1.00
2023-05-07T13:48:55.706Z,1.00
2023-05-07T13:51:23.014Z,1.00
2023-05-07T13:53:49.848Z,1.00
2023-05-07T13:56:16.515Z,1.00
2023-05-07T13:58:56.287Z,1.00
2023-05-07T14:01:26.009Z,1.00
2023-05-07T14:03:52.823Z,1.00
2023-05-07T14:06:19.735Z,1.00
2023-05-07T14:08:46.442Z,1.00
2023-05-07T14:11:13.128Z,1.00
2023-05-07T14:13:40.052Z,1.00
2023-05-07T14:16:06.965Z,1.00
2023-05-07T14:18:35.426Z,1.00
2023-05-07T14:21:02.144Z,1.00
2023-05-07T14:23:29.071Z,1.00
2023-05-07T14:25:57.601Z,1.00
2023-05-07T14:28:25.142Z,1.00
2023-05-07T14:30:51.915Z,1.00
2023-05-07T14:33:18.820Z,1.00
2023-05-07T14:35:49.598Z,1.00
2023-05-07T14:38:16.682Z,1.00
2023-05-07T14:40:43.629Z,1.00
2023-05-07T14:43:10.340Z,1.00
2023-05-07T14:45:37.025Z,1.00
2023-05-07T14:48:04.325Z,1.00
2023-05-07T14:50:31.225Z,1.00
2023-05-07T14:52:58.136Z,1.00
2023-05-07T14:55:24.886Z,1.00
2023-05-07T14:57:51.609Z,1.00
2023-05-07T15:00:18.562Z,1.00
2023-05-07T15:02:45.566Z,1.00
2023-05-07T15:05:13.082Z,1.00
2023-05-07T15:07:39.919Z,1.00
2023-05-07T15:10:07.113Z,1.00
2023-05-07T15:12:34.286Z,1.00
2023-05-07T15:15:01.126Z,1.00
2023-05-07T15:17:27.837Z,1.00
2023-05-07T15:19:54.725Z,1.00
2023-05-07T15:22:22.693Z,1.00
2023-05-07T15:24:49.556Z,1.00
2023-05-07T15:27:17.716Z,1.00
2023-05-07T15:29:47.157Z,1.00
2023-05-07T15:32:14.436Z,1.00
2023-05-07T15:34:42.193Z,1.00
2023-05-07T15:37:08.882Z,1.00
2023-05-07T15:39:35.651Z,1.00
2023-05-07T15:42:02.493Z,1.00
2023-05-07T15:44:32.038Z,1.00
2023-05-07T15:47:02.041Z,1.00
2023-05-07T15:49:28.774Z,1.00
2023-05-07T15:51:55.694Z,1.00
2023-05-07T15:54:23.842Z,1.00
2023-05-07T15:56:50.656Z,1.00
2023-05-07T15:59:17.686Z,1.00
2023-05-07T16:01:45.732Z,1.00
2023-05-07T16:04:12.584Z,1.00
2023-05-07T16:06:39.589Z,1.00
2023-05-07T16:09:06.535Z,1.00
2023-05-07T16:11:34.221Z,1.00
2023-05-07T16:14:01.536Z,1.00
2023-05-07T16:16:31.500Z,1.00
2023-05-07T16:18:58.300Z,1.00
2023-05-07T16:21:25.037Z,1.00
2023-05-07T16:23:52.046Z,1.00
2023-05-07T16:26:18.972Z,1.00
2023-05-07T16:28:45.774Z,1.00
2023-05-07T16:31:12.685Z,1.00
2023-05-07T16:33:39.433Z,1.00
2023-05-07T16:36:06.850Z,1.00
2023-05-07T16:38:34.284Z,1.00
2023-05-07T16:41:01.542Z,1.00
2023-05-07T16:43:28.454Z,1.00
2023-05-07T16:45:55.305Z,1.00
2023-05-07T16:48:22.205Z,1.00
2023-05-07T16:50:48.909Z,1.00
2023-05-07T16:53:15.867Z,1.00
2023-05-07T16:55:42.622Z,1.00
2023-05-07T16:58:11.375Z,1.00
2023-05-07T17:00:50.091Z,1.00
2023-05-07T17:03:18.433Z,1.00
2023-05-07T17:05:45.610Z,1.00
2023-05-07T17:08:13.945Z,1.00
2023-05-07T17:10:41.593Z,1.00
2023-05-07T17:13:08.402Z,1.00
2023-05-07T17:15:35.266Z,1.00
2023-05-07T17:18:02.099Z,1.00
2023-05-07T17:20:28.937Z,1.00
2023-05-07T17:22:55.773Z,1.00
2023-05-07T17:25:23.540Z,1.00
2023-05-07T17:27:50.541Z,1.00
2023-05-07T17:30:17.971Z,1.00
2023-05-07T17:32:45.156Z,1.00
2023-05-07T17:35:11.982Z,1.00
2023-05-07T17:37:38.800Z,1.00
2023-05-07T17:40:06.349Z,1.00
2023-05-07T17:42:33.279Z,1.00
2023-05-07T17:44:59.994Z,1.00
2023-05-07T17:47:26.843Z,1.60
2023-05-07T17:49:53.600Z,2.40
2023-05-07T17:52:20.311Z,1.40
2023-05-07T17:54:47.038Z,3.60
2023-05-07T17:57:14.039Z,6.10
2023-05-07T17:59:40.763Z,8.00
2023-05-07T18:02:07.703Z,10.20
2023-05-07T18:04:34.395Z,11.30
2023-05-07T18:07:01.172Z,14.60
2023-05-07T18:09:27.878Z,32.30
2023-05-07T18:11:54.779Z,13.70
2023-05-07T18:14:24.389Z,9.10
2023-05-07T18:16:51.516Z,10.40
2023-05-07T18:19:18.366Z,9.80
2023-05-07T18:21:45.463Z,10.70
2023-05-07T18:24:12.236Z,15.00
2023-05-07T18:26:38.976Z,12.80
2023-05-07T18:29:05.726Z,31.40
2023-05-07T18:31:33.671Z,12.10
2023-05-07T18:34:01.563Z,11.20
2023-05-07T18:36:28.344Z,13.50
2023-05-07T18:38:55.257Z,12.10
2023-05-07T18:41:22.090Z,15.70
2023-05-07T18:43:48.958Z,15.30
2023-05-07T18:46:15.767Z,16.50
2023-05-07T18:48:42.537Z,17.30
2023-05-07T18:51:12.605Z,18.10
2023-05-07T18:53:40.286Z,23.00
2023-05-07T18:56:08.621Z,22.80
2023-05-07T18:58:35.974Z,25.90
2023-05-07T19:01:07.915Z,25.20
2023-05-07T19:03:38.012Z,27.10
2023-05-07T19:06:05.923Z,28.20
2023-05-07T19:08:34.175Z,29.40
2023-05-07T19:11:02.478Z,34.80
2023-05-07T19:13:29.355Z,39.80
2023-05-07T19:15:56.590Z,43.00
2023-05-07T19:18:23.321Z,45.10
2023-05-07T19:20:53.158Z,44.70
2023-05-07T19:23:21.913Z,47.30
2023-05-07T19:25:48.996Z,46.40
2023-05-07T19:28:16.460Z,50.10
2023-05-07T19:30:43.145Z,59.30
2023-05-07T19:33:10.006Z,57.20
2023-05-07T19:35:37.050Z,59.50
2023-05-07T19:38:05.609Z,71.20
2023-05-07T19:40:32.887Z,88.80
2023-05-07T19:42:59.693Z,86.30
2023-05-07T19:45:27.032Z,87.50
2023-05-07T19:47:53.936Z,99.90
2023-05-07T19:50:20.724Z,99.90
2023-05-07T19:52:47.389Z,99.90
2023-05-07T19:55:14.528Z,99.90
2023-05-07T19:57:41.521Z,99.90
2023-05-07T20:00:11.882Z,99.90
2023-05-07T20:02:38.865Z,99.90
2023-05-07T20:05:06.082Z,99.90
2023-05-07T20:07:32.969Z,99.90
2023-05-07T20:09:59.635Z,99.90
2023-05-07T20:12:26.441Z,99.90
2023-05-07T20:14:53.255Z,99.90
2023-05-07T20:17:20.019Z,99.90
2023-05-07T20:19:46.725Z,99.90
2023-05-07T20:22:13.588Z,1.00
2023-05-07T20:24:40.323Z,1.00
2023-05-07T20:27:07.254Z,1.00
2023-05-07T20:29:34.108Z,1.00
2023-05-07T20:32:01.334Z,99.90
2023-05-07T20:34:28.600Z,99.90
2023-05-07T20:36:55.285Z,99.90
2023-05-07T20:39:22.102Z,99.90
2023-05-07T20:41:48.824Z,99.90
2023-05-07T20:44:17.291Z,99.90
2023-05-07T20:46:44.699Z,99.90
2023-05-07T20:49:12.077Z,99.90
2023-05-07T20:51:38.754Z,99.90
2023-05-07T20:54:08.513Z,99.90
2023-05-07T20:56:35.417Z,99.90
2023-05-07T20:59:02.127Z,99.90
2023-05-07T21:01:29.464Z,99.90
2023-05-07T21:03:56.363Z,99.90
2023-05-07T21:06:23.087Z,99.90
2023-05-07T21:08:49.765Z,99.90
2023-05-07T21:11:16.484Z,99.90
2023-05-07T21:13:43.216Z,99.90
2023-05-07T21:16:10.183Z,99.90
2023-05-07T21:18:37.438Z,99.90
2023-05-07T21:21:08.378Z,99.90
2023-05-07T21:23:37.999Z,99.90
2023-05-07T21:26:04.753Z,99.90
2023-05-07T21:28:31.486Z,99.90
2023-05-07T21:30:58.164Z,99.90
2023-05-07T21:33:25.073Z,99.90
2023-05-07T21:35:51.874Z,99.90
2023-05-07T21:38:18.895Z,99.90
2023-05-07T21:40:45.699Z,99.90
2023-05-07T21:43:12.380Z,99.90
2023-05-07T21:45:41.065Z,99.90
2023-05-07T21:48:07.943Z,99.90
2023-05-07T21:50:34.714Z,99.90
2023-05-07T21:53:01.403Z,99.90
2023-05-07T21:55:28.058Z,99.90
2023-05-07T21:58:04.932Z,99.90
2023-05-07T22:00:33.183Z,99.90
2023-05-07T22:03:00.198Z,99.90
2023-05-07T22:05:27.153Z,99.90
2023-05-07T22:07:53.817Z,99.90
2023-05-07T22:10:22.866Z,99.90
2023-05-07T22:12:50.181Z,99.90
2023-05-07T22:15:17.226Z,99.90
2023-05-07T22:17:43.964Z,99.90
2023-05-07T22:20:11.792Z,99.90
2023-05-07T22:22:55.120Z,99.90
2023-05-07T22:25:23.044Z,99.90
2023-05-07T22:27:50.518Z,99.90
2023-05-07T22:30:17.777Z,99.90
2023-05-07T22:32:45.052Z,99.90
2023-05-07T22:35:12.176Z,99.90
2023-05-07T22:37:39.350Z,99.90
2023-05-07T22:40:06.621Z,99.90
2023-05-07T22:42:33.321Z,99.90
2023-05-07T22:44:59.988Z,99.90
2023-05-07T22:47:30.833Z,99.90
2023-05-07T22:49:57.658Z,99.90
2023-05-07T22:52:24.450Z,99.90
2023-05-07T22:54:51.250Z,99.90
2023-05-07T22:57:17.943Z,99.90
2023-05-07T22:59:44.597Z,99.90
2023-05-07T23:02:11.417Z,99.90
2023-05-07T23:04:38.168Z,99.90
2023-05-07T23:07:04.829Z,99.90
2023-05-07T23:09:31.554Z,99.90
2023-05-07T23:11:58.206Z,99.90
2023-05-07T23:14:25.084Z,99.90
2023-05-07T23:16:51.780Z,99.90
2023-05-07T23:19:18.585Z,99.90
2023-05-07T23:21:45.330Z,99.90
2023-05-07T23:24:12.049Z,99.90
2023-05-07T23:26:38.734Z,99.90
2023-05-07T23:29:05.447Z,99.90
2023-05-07T23:31:32.369Z,99.90
2023-05-07T23:33:59.138Z,99.90
2023-05-07T23:36:25.799Z,99.90
2023-05-07T23:38:52.503Z,99.90
2023-05-07T23:41:19.151Z,99.90
2023-05-07T23:43:45.866Z,99.90
2023-05-07T23:46:12.581Z,99.90
2023-05-07T23:48:39.280Z,99.90
2023-05-07T23:51:05.954Z,99.90
2023-05-07T23:53:35.463Z,99.90
2023-05-07T23:56:02.161Z,99.90
2023-05-07T23:58:28.817Z,99.90
